Time;durP1;ratioP1;P1;durP2;ratioP2;P2;SDS_P1;SDS_P2;PMS_P1;PMS_P2;Temp;Humidity;BMP_temperature;BMP_pressure;BME280_temperature;BME280_humidity;BME280_pressure;Samples;Min_cycle;Max_cycle;Signal;HPM_P1;HPM_P2
2023/09/19 07:01:25;;;;;;;0.87;0.87;;;16.20;99.90;18.80;100776.00;;;;6173189;22;3006765;-68
2023/09/19 07:03:59;;;;;;;0.20;0.20;;;15.90;99.90;18.80;100785.00;;;;6340652;22;20166;-68
2023/09/19 07:06:25;;;;;;;0.20;0.20;;;15.90;99.90;19.80;100787.00;;;;6340596;22;20512;-68
2023/09/19 07:08:55;;;;;;;1.20;1.03;;;16.20;99.90;18.60;100783.00;;;;6338948;22;20215;-69
2023/09/19 07:11:30;;;;;;;0.50;0.50;;;16.20;99.90;19.40;100793.00;;;;6340551;22;20466;-68
2023/09/19 07:13:57;;;;;;;0.20;0.20;;;16.40;99.90;20.20;100797.00;;;;6338240;22;20155;-69
2023/09/19 07:16:29;;;;;;;0.20;0.20;;;16.60;99.90;20.00;100800.00;;;;6338705;22;20609;-69
2023/09/19 07:19:03;;;;;;;0.20;0.20;;;16.80;99.90;19.70;100797.00;;;;6340318;22;20144;-69
2023/09/19 07:21:40;;;;;;;0.10;0.10;;;16.80;99.90;19.50;100799.00;;;;6338706;22;20261;-70
2023/09/19 07:24:18;;;;;;;0.20;0.20;;;16.60;99.90;20.80;100800.00;;;;6338786;22;20443;-70
2023/09/19 07:26:50;;;;;;;0.20;0.20;;;17.00;99.90;21.00;100807.00;;;;6338653;22;20142;-71
2023/09/19 07:29:16;;;;;;;6.33;1.50;;;17.60;99.90;20.60;100822.00;;;;6338509;22;20142;-71
2023/09/19 07:32:02;;;;;;;0.10;0.10;;;17.70;99.90;20.90;100819.00;;;;6312375;22;20285;-71
2023/09/19 07:34:30;;;;;;;0.20;0.20;;;17.80;99.90;21.70;100809.00;;;;6336813;22;20488;-71
2023/09/19 07:37:03;;;;;;;0.10;0.10;;;18.20;99.90;20.40;100815.00;;;;6338672;22;20143;-71
2023/09/19 07:39:40;;;;;;;0.10;0.10;;;17.90;99.90;20.60;100815.00;;;;6312408;22;20163;-71
2023/09/19 07:42:10;;;;;;;0.57;0.20;;;17.90;99.90;20.70;100781.00;;;;6338619;22;20173;-71
2023/09/19 07:44:37;;;;;;;0.25;0.25;;;17.70;99.90;20.70;100822.00;;;;6337997;22;20140;-71
2023/09/19 07:47:03;;;;;;;0.10;0.10;;;17.80;99.90;22.00;100843.00;;;;6338323;22;20139;-71
2023/09/19 07:49:32;;;;;;;0.52;0.20;;;18.30;99.90;21.90;100805.00;;;;6338564;22;20140;-71
2023/09/19 07:51:58;;;;;;;0.10;0.10;;;18.50;99.90;22.60;100829.00;;;;6312141;22;20164;-71
2023/09/19 07:54:25;;;;;;;0.38;0.30;;;19.00;99.90;22.40;100837.00;;;;6338498;22;20136;-71
2023/09/19 07:56:51;;;;;;;0.10;0.10;;;19.30;99.90;22.30;100828.00;;;;6338487;22;20469;-71
2023/09/19 07:59:17;;;;;;;0.20;0.20;;;19.00;99.90;22.90;100835.00;;;;6337993;22;20148;-71
2023/09/19 08:01:48;;;;;;;14.00;2.10;;;19.40;99.90;22.30;100800.00;;;;6338057;22;20171;-71
2023/09/19 08:04:14;;;;;;;0.10;0.10;;;19.10;99.90;23.00;100843.00;;;;6337596;22;20164;-71
2023/09/19 08:06:46;;;;;;;0.10;0.10;;;19.50;99.90;22.60;100827.00;;;;6312037;22;20162;-71
2023/09/19 08:09:17;;;;;;;3.50;0.75;;;19.40;99.90;22.30;100826.00;;;;6311511;22;20163;-71
2023/09/19 08:11:48;;;;;;;0.75;0.40;;;19.40;99.90;22.50;100837.00;;;;6337907;22;20148;-75
2023/09/19 08:14:29;;;;;;;2.38;0.30;;;19.40;99.90;22.70;100836.00;;;;6338658;22;20139;-70
2023/09/19 08:17:00;;;;;;;0.10;0.10;;;19.40;99.90;24.00;100848.00;;;;6338411;22;20143;-69
2023/09/19 08:19:31;;;;;;;0.40;0.40;;;20.30;99.90;23.80;100856.00;;;;6339665;22;20223;-74
2023/09/19 08:22:06;;;;;;;0.38;0.38;;;20.30;99.90;22.70;100846.00;;;;6337286;22;20246;-72
2023/09/19 08:24:56;;;;;;;0.10;0.10;;;20.00;99.90;22.20;100829.00;;;;6312211;22;20640;-71
2023/09/19 08:27:30;;;;;;;0.35;0.20;;;19.70;99.90;24.20;100856.00;;;;6311946;22;20155;-69
2023/09/19 08:30:30;;;;;;;0.10;0.10;;;20.40;99.90;23.00;100836.00;;;;6312720;22;20572;-74
2023/09/19 08:33:07;;;;;;;1.10;0.38;;;20.10;99.90;20.60;100798.00;;;;6337692;22;20163;-72
2023/09/19 08:35:43;;;;;;;0.20;0.20;;;18.90;99.90;21.80;100826.00;;;;6311434;22;20229;-74
2023/09/19 08:38:10;;;;;;;5.68;0.90;;;18.80;99.90;21.40;100807.00;;;;6311894;22;20173;-72
2023/09/19 08:40:42;;;;;;;0.20;0.20;;;18.90;99.90;23.60;100832.00;;;;6338175;22;20527;-69
2023/09/19 08:43:28;;;;;;;5.32;1.33;;;19.70;99.90;22.50;100803.00;;;;6338020;22;20184;-71
2023/09/19 08:46:16;;;;;;;0.10;0.10;;;19.80;99.90;22.90;100821.00;;;;6337910;22;20151;-71
2023/09/19 08:49:24;;;;;;;0.22;0.22;;;19.70;99.90;23.10;100828.00;;;;6311789;22;20152;-71
2023/09/19 08:52:20;;;;;;;1.55;1.35;;;20.00;99.90;21.40;100814.00;;;;6263659;22;20160;-81
2023/09/19 08:54:52;;;;;;;1.20;0.13;;;19.50;99.90;22.40;100830.00;;;;6338377;22;20141;-71
2023/09/19 08:57:25;;;;;;;0.10;0.10;;;19.70;99.90;22.40;100810.00;;;;6311966;22;20151;-69
2023/09/19 08:59:55;;;;;;;1.23;0.95;;;19.30;99.90;21.00;100778.00;;;;6339309;22;20170;-70
2023/09/19 09:02:23;;;;;;;0.10;0.10;;;19.00;99.90;21.80;100816.00;;;;6311722;22;20171;-68
2023/09/19 09:04:54;;;;;;;0.10;0.10;;;19.10;99.90;23.60;100800.00;;;;6312228;22;20163;-68
2023/09/19 09:07:22;;;;;;;0.30;0.30;;;19.70;99.90;24.00;100827.00;;;;6338915;22;20160;-68
2023/09/19 09:09:51;;;;;;;0.10;0.10;;;20.10;99.90;23.80;100834.00;;;;6285619;22;20288;-69
2023/09/19 09:12:17;;;;;;;0.10;0.10;;;20.20;99.90;23.40;100845.00;;;;6310702;22;20140;-69
2023/09/19 09:14:49;;;;;;;0.30;0.20;;;20.00;99.90;23.20;100834.00;;;;6285542;22;20148;-68
2023/09/19 09:17:21;;;;;;;2.10;1.10;;;20.00;99.90;22.60;100836.00;;;;6306778;22;20193;-67
2023/09/19 09:19:47;;;;;;;1.10;0.28;;;20.00;99.90;23.10;100849.00;;;;6338215;22;20158;-67
2023/09/19 09:22:13;;;;;;;0.20;0.20;;;19.90;99.90;24.40;100887.00;;;;6311100;22;20531;-67
2023/09/19 09:25:11;;;;;;;10.35;0.93;;;20.40;99.90;22.10;100867.00;;;;6311297;22;20152;-68
2023/09/19 09:27:54;;;;;;;3.95;0.70;;;19.80;99.90;22.30;100866.00;;;;6253210;22;20499;-68
2023/09/19 09:30:37;;;;;;;1.20;0.63;;;19.80;99.90;22.90;100849.00;;;;6311110;22;20164;-69
2023/09/19 09:33:14;;;;;;;2.25;0.43;;;19.80;99.90;22.40;100837.00;;;;6285920;22;20246;-66
2023/09/19 09:36:12;;;;;;;0.90;0.90;;;19.70;99.90;22.70;100839.00;;;;6338254;22;20161;-66
2023/09/19 09:38:48;;;;;;;0.10;0.10;;;19.80;99.90;23.60;100844.00;;;;6339097;22;20142;-67
2023/09/19 09:41:27;;;;;;;1.45;0.40;;;20.20;99.90;22.80;100869.00;;;;6285626;22;20159;-67
2023/09/19 09:44:17;;;;;;;0.30;0.30;;;20.20;99.90;22.90;100846.00;;;;6314280;22;20171;-66
2023/09/19 09:52:16;;;;;;;1.45;0.88;;;21.70;99.90;24.70;100930.00;;;;6311824;22;20136;-67
2023/09/19 09:55:07;;;;;;;0.10;0.10;;;21.80;99.90;24.50;100931.00;;;;6313023;22;20143;-69
2023/09/19 09:57:36;;;;;;;1.40;0.55;;;21.20;99.90;26.30;100906.00;;;;6338822;22;20183;-67
2023/09/19 10:03:11;;;;;;;0.25;0.25;;;21.20;99.90;26.20;100918.00;;;;6312353;22;20250;-67
2023/09/19 10:05:58;;;;;;;0.10;0.10;;;21.90;99.90;25.30;100906.00;;;;6311225;22;20429;-67
2023/09/19 10:09:02;;;;;;;0.20;0.20;;;21.90;99.90;24.50;100930.00;;;;6310266;22;20614;-67
2023/09/19 10:11:37;;;;;;;0.10;0.10;;;21.50;99.90;25.90;100916.00;;;;6311731;22;20144;-67
2023/09/19 10:14:29;;;;;;;8.25;0.60;;;22.10;99.90;24.70;100918.00;;;;6311726;22;20139;-67
2023/09/19 10:17:03;;;;;;;0.10;0.10;;;21.90;99.90;24.00;100904.00;;;;6310896;22;20147;-69
2023/09/19 10:19:46;;;;;;;0.17;0.17;;;21.10;99.90;25.30;100891.00;;;;6311702;22;20535;-68
2023/09/19 10:34:23;;;;;;;0.65;0.50;;;21.00;99.90;24.50;100825.00;;;;5130030;27;20592;-67
2023/09/19 10:36:56;;;;;;;0.10;0.10;;;21.50;99.90;26.40;100861.00;;;;5090898;28;20195;-69
2023/09/19 10:39:46;;;;;;;0.28;0.22;;;22.40;99.90;27.10;100881.00;;;;5089745;28;20188;-68
2023/09/19 10:42:35;;;;;;;0.20;0.20;;;23.10;99.90;28.10;100883.00;;;;5095506;28;20188;-67
2023/09/19 10:45:24;;;;;;;0.10;0.10;;;23.80;99.90;27.00;100902.00;;;;5084306;28;20187;-67
2023/09/19 10:48:25;;;;;;;0.10;0.10;;;23.80;99.90;23.40;100924.00;;;;5101837;28;20192;-69
2023/09/19 10:51:23;;;;;;;0.30;0.30;;;21.30;99.90;23.50;100882.00;;;;5089665;28;20184;-69
2023/09/19 10:54:05;;;;;;;0.40;0.40;;;21.00;99.90;24.40;100884.00;;;;5096231;28;20552;-69
2023/09/19 10:56:45;;;;;;;1.45;0.95;;;21.60;99.90;23.50;100879.00;;;;5074873;28;20661;-69
2023/09/19 10:59:18;;;;;;;0.20;0.20;;;21.40;99.90;24.90;100870.00;;;;5091040;28;20279;-69
2023/09/19 11:01:56;;;;;;;0.43;0.43;;;21.70;99.90;23.50;100866.00;;;;5081707;28;20189;-69
2023/09/19 11:04:35;;;;;;;2.40;0.30;;;21.30;99.90;24.40;100856.00;;;;5093293;28;20191;-69
2023/09/19 11:07:18;;;;;;;0.22;0.22;;;21.50;99.90;26.50;100851.00;;;;5100775;28;20172;-69
2023/09/19 11:10:04;;;;;;;0.10;0.10;;;22.30;99.90;24.40;100857.00;;;;5089897;28;20268;-69
2023/09/19 11:12:45;;;;;;;0.20;0.20;;;21.80;99.90;26.70;100859.00;;;;5089974;28;20640;-69
2023/09/19 11:15:57;;;;;;;0.10;0.10;;;22.50;99.90;27.00;100864.00;;;;5107521;28;20177;-69
2023/09/19 11:18:42;;;;;;;2.13;0.75;;;23.40;99.90;24.10;100915.00;;;;5093652;28;20929;-67
2023/09/19 11:21:36;;;;;;;0.28;0.28;;;22.70;99.90;24.50;100871.00;;;;5107997;28;20185;-68
2023/09/19 11:24:22;;;;;;;0.45;0.30;;;21.50;99.90;24.40;100838.00;;;;5091552;28;20630;-68
2023/09/19 11:27:13;;;;;;;0.35;0.35;;;21.20;99.90;24.30;100844.00;;;;5103289;28;20177;-68
2023/09/19 11:30:27;;;;;;;0.20;0.20;;;21.20;99.90;24.50;100851.00;;;;5073065;28;20685;-68
2023/09/19 11:33:33;;;;;;;3.35;0.43;;;21.30;99.90;24.90;100859.00;;;;5087663;28;20369;-68
2023/09/19 11:36:11;;;;;;;0.60;0.60;;;21.70;99.90;25.00;100858.00;;;;5090158;28;20180;-69
2023/09/19 11:38:47;;;;;;;0.10;0.10;;;21.90;99.90;24.80;100870.00;;;;5090567;28;20237;-68
2023/09/19 11:41:29;;;;;;;1.23;0.32;;;21.60;99.90;24.80;100865.00;;;;5106297;28;20273;-68
2023/09/19 11:44:10;;;;;;;0.30;0.30;;;21.80;99.90;24.50;100878.00;;;;5095285;28;20583;-68
2023/09/19 11:46:56;;;;;;;0.50;0.38;;;22.00;99.90;24.20;100871.00;;;;5087107;28;20268;-68
2023/09/19 11:49:55;;;;;;;0.10;0.10;;;21.70;99.90;25.20;100862.00;;;;5077616;28;20197;-68
2023/09/19 11:53:05;;;;;;;0.10;0.10;;;21.70;99.90;24.80;100860.00;;;;5082980;28;20267;-68
2023/09/19 11:55:32;;;;;;;0.20;0.20;;;21.50;99.90;24.90;100866.00;;;;5074530;28;20173;-68
2023/09/19 11:57:59;;;;;;;0.20;0.20;;;21.70;99.90;25.00;100847.00;;;;5088706;28;20204;-68
2023/09/19 12:00:27;;;;;;;5.10;1.02;;;21.40;99.90;24.60;100855.00;;;;5076949;28;20196;-68
2023/09/19 12:03:01;;;;;;;0.10;0.10;;;21.40;99.90;25.20;100854.00;;;;5082520;28;20189;-68
2023/09/19 12:05:33;;;;;;;0.17;0.17;;;21.70;99.90;25.70;100862.00;;;;5077608;28;20195;-68
2023/09/19 12:08:08;;;;;;;0.10;0.10;;;22.00;99.90;24.10;100869.00;;;;5094018;28;20235;-68
2023/09/19 12:10:48;;;;;;;1.55;0.50;;;21.70;99.90;25.40;100867.00;;;;5058346;28;20188;-68
2023/09/19 12:13:19;;;;;;;0.13;0.13;;;21.80;99.90;25.10;100873.00;;;;5075790;28;20307;-68
2023/09/19 12:15:47;;;;;;;0.10;0.10;;;21.70;99.90;24.80;100862.00;;;;5078642;28;20186;-68
2023/09/19 12:18:35;;;;;;;0.45;0.40;;;21.50;99.90;23.90;100869.00;;;;5064297;28;20174;-68
2023/09/19 12:21:12;;;;;;;1.70;0.60;;;21.30;99.90;23.90;100877.00;;;;5081262;28;20187;-68
2023/09/19 12:23:44;;;;;;;0.22;0.22;;;21.40;99.90;24.60;100861.00;;;;5074692;28;20227;-68
2023/09/19 12:26:13;;;;;;;0.10;0.10;;;21.40;99.90;25.30;100872.00;;;;5084767;28;20666;-68
2023/09/19 12:28:43;;;;;;;0.55;0.55;;;21.80;99.90;24.00;100864.00;;;;5056684;28;20189;-68
2023/09/19 12:31:19;;;;;;;0.80;0.77;;;21.40;99.90;23.80;100879.00;;;;5092273;28;20662;-68
2023/09/19 12:34:01;;;;;;;0.10;0.10;;;21.20;99.90;23.90;100855.00;;;;5076033;28;20648;-68
2023/09/19 12:37:11;;;;;;;0.38;0.38;;;21.00;99.90;23.90;100880.00;;;;5060090;28;20188;-68
2023/09/19 12:39:48;;;;;;;0.25;0.25;;;21.30;99.90;23.10;100836.00;;;;5081460;28;20181;-68
2023/09/19 12:42:35;;;;;;;0.88;0.47;;;20.70;99.90;24.30;100837.00;;;;5063070;28;20536;-70
2023/09/19 12:45:26;;;;;;;2.38;0.77;;;20.90;99.90;23.70;100821.00;;;;5060984;28;20196;-69
2023/09/19 12:48:33;;;;;;;0.82;0.38;;;21.00;99.90;22.50;100798.00;;;;5056468;28;20189;-70
2023/09/19 12:51:12;;;;;;;1.20;1.05;;;20.40;99.90;22.10;100776.00;;;;5065998;28;20237;-70
2023/09/19 12:53:49;;;;;;;0.20;0.20;;;20.30;99.90;22.80;100784.00;;;;5080604;28;20639;-70
2023/09/19 12:56:17;;;;;;;0.38;0.38;;;20.30;99.90;23.90;100805.00;;;;5071302;28;20181;-69
2023/09/19 12:58:54;;;;;;;0.10;0.10;;;20.70;99.90;23.20;100800.00;;;;5072385;28;20169;-70
2023/09/19 13:01:22;;;;;;;4.85;0.52;;;20.60;99.90;23.00;100803.00;;;;5072385;28;20196;-69
2023/09/19 13:04:27;;;;;;;0.52;0.20;;;20.50;99.90;23.70;100808.00;;;;5089205;28;20554;-69
2023/09/19 13:07:00;;;;;;;0.10;0.10;;;20.60;99.90;23.70;100813.00;;;;5057970;28;20186;-69
2023/09/19 13:09:38;;;;;;;0.13;0.13;;;20.70;99.90;24.30;100808.00;;;;5075915;28;20522;-69
2023/09/19 13:12:38;;;;;;;1.75;0.65;;;20.70;99.90;22.90;100860.00;;;;5055849;28;20197;-69
2023/09/19 13:15:15;;;;;;;2.38;0.73;;;21.10;99.90;23.20;100828.00;;;;5081540;28;20185;-69
2023/09/19 13:17:48;;;;;;;4.75;1.40;;;20.80;99.90;22.60;100802.00;;;;5069989;28;20213;-69
2023/09/19 13:20:27;;;;;;;0.15;0.15;;;20.50;99.90;23.40;100797.00;;;;5074924;28;20177;-69
2023/09/19 13:23:10;;;;;;;0.60;0.30;;;20.60;99.90;23.40;100812.00;;;;5071717;28;20581;-69
2023/09/19 13:25:56;;;;;;;0.10;0.10;;;20.80;99.90;24.80;100787.00;;;;5071854;28;20178;-69
2023/09/19 13:28:21;;;;;;;0.10;0.10;;;21.20;99.90;25.60;100820.00;;;;5067560;28;20185;-69
2023/09/19 13:30:53;;;;;;;0.73;0.52;;;21.50;99.90;24.90;100804.00;;;;5070906;28;20231;-69
2023/09/19 13:33:52;;;;;;;0.10;0.10;;;21.50;99.90;26.00;100812.00;;;;5074743;28;20235;-69
2023/09/19 13:36:38;;;;;;;0.10;0.10;;;21.90;99.90;26.10;100812.00;;;;5075874;28;20185;-69
2023/09/19 13:39:24;;;;;;;0.20;0.20;;;22.00;99.90;26.10;100835.00;;;;5090778;28;20173;-69
2023/09/19 13:42:30;;;;;;;0.10;0.10;;;22.10;99.90;26.60;100835.00;;;;5091083;28;20822;-69
2023/09/19 13:45:24;;;;;;;0.38;0.38;;;22.10;99.90;25.70;100862.00;;;;5073336;28;20646;-69
2023/09/19 13:48:13;;;;;;;0.17;0.17;;;22.40;99.90;26.00;100875.00;;;;5090926;28;20190;-69
2023/09/19 13:51:06;;;;;;;1.45;0.45;;;22.50;99.90;24.70;100855.00;;;;5073766;28;20181;-69
2023/09/19 13:53:53;;;;;;;1.33;0.28;;;21.80;99.90;26.20;100850.00;;;;5075210;28;20189;-69
2023/09/19 13:56:43;;;;;;;0.45;0.20;;;22.10;99.90;25.80;100821.00;;;;5056155;28;20189;-69
2023/09/19 13:59:30;;;;;;;0.93;0.30;;;22.50;99.90;25.00;100823.00;;;;5062607;28;20181;-69
2023/09/19 14:02:14;;;;;;;0.40;0.40;;;21.90;99.90;26.00;100833.00;;;;5080330;28;20180;-69
2023/09/19 14:05:05;;;;;;;0.40;0.40;;;22.10;99.90;24.70;100867.00;;;;5075576;28;20180;-69
2023/09/19 14:07:50;;;;;;;0.15;0.15;;;22.20;99.90;25.70;100844.00;;;;5071918;28;20177;-69
2023/09/19 14:10:51;;;;;;;0.20;0.20;;;22.00;99.90;25.70;100857.00;;;;5075401;28;20191;-69
2023/09/19 14:13:35;;;;;;;0.68;0.68;;;22.20;99.90;24.60;100862.00;;;;5102392;28;20227;-69
2023/09/19 14:16:24;;;;;;;0.17;0.17;;;22.10;99.90;24.80;100821.00;;;;5072256;28;20705;-69
2023/09/19 14:19:10;;;;;;;0.20;0.20;;;21.60;99.90;23.90;100815.00;;;;5069296;28;20263;-69
2023/09/19 14:21:36;;;;;;;0.30;0.30;;;21.20;99.90;25.30;100810.00;;;;5072279;28;20184;-69
2023/09/19 14:24:25;;;;;;;0.30;0.30;;;21.50;99.90;24.30;100817.00;;;;5071485;28;20193;-69
2023/09/19 14:26:54;;;;;;;0.32;0.32;;;21.40;99.90;23.70;100782.00;;;;5081024;28;20661;-69
2023/09/19 14:29:22;;;;;;;0.25;0.25;;;21.10;99.90;25.00;100797.00;;;;5074762;28;20528;-69
2023/09/19 14:31:51;;;;;;;0.40;0.35;;;21.30;99.90;24.30;100801.00;;;;5058700;28;20289;-69
2023/09/19 14:34:19;;;;;;;0.10;0.10;;;21.20;99.90;26.20;100788.00;;;;5074981;28;20535;-69
2023/09/19 14:36:45;;;;;;;1.20;0.38;;;21.80;99.90;25.20;100825.00;;;;5088411;28;20210;-69
2023/09/19 14:39:12;;;;;;;0.30;0.30;;;22.00;99.90;26.00;100826.00;;;;5073682;28;20721;-69
2023/09/19 14:41:40;;;;;;;0.45;0.30;;;22.00;99.90;24.80;100848.00;;;;5067048;28;20238;-68
2023/09/19 14:44:07;;;;;;;0.10;0.10;;;21.90;99.90;26.40;100837.00;;;;5073825;28;20192;-69
2023/09/19 14:46:33;;;;;;;0.10;0.10;;;22.10;99.90;26.10;100833.00;;;;5065269;28;20208;-69
2023/09/19 14:49:04;;;;;;;0.85;0.30;;;22.00;99.90;25.40;100843.00;;;;5070124;28;20189;-69
2023/09/19 14:51:32;;;;;;;0.28;0.13;;;21.90;99.90;23.20;100785.00;;;;5053939;28;20667;-68
2023/09/19 14:54:01;;;;;;;0.30;0.30;;;21.00;99.90;23.40;100773.00;;;;5065612;28;20181;-69
2023/09/19 14:56:38;;;;;;;0.17;0.17;;;20.60;99.90;24.30;100796.00;;;;5070688;28;20189;-69
2023/09/19 14:59:10;;;;;;;0.30;0.30;;;20.80;99.90;23.20;100774.00;;;;5057510;28;20189;-68
2023/09/19 15:01:45;;;;;;;0.10;0.10;;;20.60;99.90;23.50;100767.00;;;;5058019;28;20177;-68
2023/09/19 15:04:14;;;;;;;1.35;0.63;;;20.50;99.90;22.90;100769.00;;;;5072539;28;20523;-68
2023/09/19 15:06:54;;;;;;;3.25;1.10;;;20.30;99.90;21.40;100744.00;;;;5073531;28;20655;-68
2023/09/19 15:09:26;;;;;;;2.00;1.23;;;20.00;99.90;21.60;100742.00;;;;5087854;28;20188;-72
2023/09/19 15:11:53;;;;;;;0.30;0.30;;;19.90;99.90;22.80;100727.00;;;;5070920;28;20205;-72
2023/09/19 15:14:37;;;;;;;0.63;0.32;;;20.00;99.90;23.00;100768.00;;;;5069058;28;20284;-72
2023/09/19 15:17:25;;;;;;;0.40;0.40;;;20.30;99.90;23.20;100748.00;;;;5071935;28;20631;-72
2023/09/19 15:19:55;;;;;;;0.28;0.28;;;20.30;99.90;23.40;100754.00;;;;5045462;28;20650;-72
2023/09/19 15:22:22;;;;;;;0.40;0.30;;;20.50;99.90;23.50;100776.00;;;;5094818;28;20190;-72
2023/09/19 15:25:08;;;;;;;0.57;0.57;;;20.50;99.90;23.70;100779.00;;;;5073664;28;20602;-68
2023/09/19 15:27:37;;;;;;;0.20;0.20;;;20.60;99.90;23.20;100760.00;;;;5074201;28;20200;-68
2023/09/19 15:30:07;;;;;;;0.10;0.10;;;20.50;99.90;23.60;100756.00;;;;5092776;28;20222;-68
2023/09/19 15:32:38;;;;;;;1.65;0.80;;;20.50;99.90;23.20;100772.00;;;;5091987;28;20303;-69
2023/09/19 15:35:13;;;;;;;0.20;0.20;;;20.50;99.90;23.70;100764.00;;;;5064623;28;20192;-69
2023/09/19 15:37:49;;;;;;;22.02;2.97;;;20.50;99.90;24.60;100785.00;;;;5078061;28;20169;-69
2023/09/19 15:40:46;;;;;;;0.20;0.20;;;20.90;99.90;23.40;100759.00;;;;5088600;28;20188;-69
2023/09/19 15:43:32;;;;;;;0.20;0.20;;;20.60;99.90;24.40;100760.00;;;;5069193;28;20269;-70
2023/09/19 15:46:21;;;;;;;0.30;0.30;;;20.60;99.90;24.80;100791.00;;;;5077079;28;20276;-69
2023/09/19 15:49:15;;;;;;;0.10;0.10;;;21.00;99.90;25.10;100803.00;;;;5077249;28;20177;-69
2023/09/19 15:51:43;;;;;;;0.20;0.20;;;21.20;99.90;25.00;100795.00;;;;5052814;28;20304;-69
2023/09/19 15:54:33;;;;;;;0.35;0.35;;;21.20;99.90;24.30;100803.00;;;;5066518;28;20223;-69
2023/09/19 16:04:24;;;;;;;0.20;0.20;;;20.90;99.90;24.60;100803.00;;;;5078664;28;20268;-69
2023/09/19 16:07:01;;;;;;;0.20;0.20;;;21.10;99.90;24.90;100796.00;;;;5060183;28;20264;-69
2023/09/19 16:09:37;;;;;;;1.98;1.88;;;21.00;99.90;23.70;100796.00;;;;5077840;28;20615;-68
2023/09/19 16:12:08;;;;;;;0.20;0.20;;;20.70;99.90;24.10;100757.00;;;;5074753;28;20667;-69
2023/09/19 16:15:11;;;;;;;8.73;0.50;;;20.60;99.90;24.20;100759.00;;;;5088576;28;20431;-69
2023/09/19 16:17:50;;;;;;;0.40;0.40;;;20.80;99.90;24.10;100779.00;;;;5035332;28;20228;-69
2023/09/19 16:20:44;;;;;;;0.17;0.17;;;20.80;99.90;23.20;100752.00;;;;5082796;28;20200;-69
2023/09/19 16:23:19;;;;;;;0.22;0.22;;;20.30;99.90;23.10;100750.00;;;;5062293;28;20297;-69
2023/09/19 16:26:00;;;;;;;0.22;0.22;;;20.30;99.90;24.10;100743.00;;;;5093702;28;20172;-69
2023/09/19 16:28:26;;;;;;;0.30;0.22;;;20.40;99.90;24.70;100783.00;;;;5061834;28;20197;-69
2023/09/19 16:30:53;;;;;;;0.35;0.35;;;20.90;99.90;25.20;100801.00;;;;5089857;28;20234;-68
2023/09/19 16:33:46;;;;;;;0.43;0.38;;;21.30;99.90;23.20;100771.00;;;;5076956;28;20351;-68
2023/09/19 16:36:21;;;;;;;0.17;0.17;;;20.60;99.90;23.50;100746.00;;;;5072982;28;20181;-68
2023/09/19 16:39:10;;;;;;;0.20;0.20;;;20.40;99.90;23.40;100748.00;;;;5081157;28;20618;-69
2023/09/19 16:41:46;;;;;;;0.20;0.20;;;20.50;99.90;24.10;100769.00;;;;5093994;28;20215;-68
2023/09/19 16:44:35;;;;;;;0.10;0.10;;;20.60;99.90;23.70;100754.00;;;;5072957;28;20654;-68
2023/09/19 16:47:25;;;;;;;0.22;0.22;;;20.30;99.90;23.10;100757.00;;;;5064412;28;20193;-68
2023/09/19 16:49:52;;;;;;;0.10;0.10;;;20.30;99.90;23.40;100757.00;;;;5083758;28;20280;-68
2023/09/19 16:52:33;;;;;;;0.50;0.50;;;20.30;99.90;22.30;100748.00;;;;5077010;28;20265;-68
2023/09/19 16:55:23;;;;;;;2.65;1.27;;;20.10;99.90;21.30;100743.00;;;;5068627;28;20220;-69
2023/09/19 16:58:29;;;;;;;0.63;0.63;;;19.60;99.90;22.90;100770.00;;;;5056628;28;20246;-68
2023/09/19 17:05:49;;;;;;;0.10;0.10;;;19.30;99.90;21.80;100756.00;;;;5055066;28;20240;-69
2023/09/19 17:08:56;;;;;;;10.37;9.73;;;19.20;99.90;21.80;100752.00;;;;5058512;28;20193;-68
2023/09/19 17:11:37;;;;;;;0.68;0.45;;;19.30;99.90;21.80;100758.00;;;;5066288;28;20184;-69
2023/09/19 17:14:09;;;;;;;2.42;0.63;;;19.20;99.90;21.30;100722.00;;;;5072526;28;20237;-69
2023/09/19 17:16:47;;;;;;;1.00;0.73;;;19.00;99.90;21.40;100734.00;;;;5071717;28;20277;-68
2023/09/19 17:19:13;;;;;;;0.87;0.30;;;19.10;99.90;21.40;100720.00;;;;5072829;28;20631;-69
2023/09/19 17:21:39;;;;;;;2.17;0.87;;;18.80;99.90;21.60;100740.00;;;;5075328;28;20196;-69
2023/09/19 17:24:49;;;;;;;0.20;0.20;;;18.90;99.90;22.40;100748.00;;;;5084518;28;20200;-69
2023/09/19 17:27:27;;;;;;;3.93;0.50;;;19.00;99.90;21.80;100739.00;;;;5040436;28;20203;-69
2023/09/19 17:31:03;;;;;;;0.40;0.40;;;18.90;99.90;22.60;100750.00;;;;5072446;28;20266;-69
2023/09/19 17:34:28;;;;;;;0.20;0.20;;;19.10;99.90;22.20;100717.00;;;;5073862;28;20231;-69
2023/09/19 17:37:05;;;;;;;3.67;1.13;;;19.20;99.90;22.60;100735.00;;;;5070857;28;20208;-69
2023/09/19 17:40:12;;;;;;;0.30;0.30;;;19.20;99.90;22.00;100733.00;;;;5080295;28;20278;-69
2023/09/19 17:42:53;;;;;;;1.85;0.50;;;19.20;99.90;21.80;100685.00;;;;5078983;28;20560;-69
2023/09/19 17:45:41;;;;;;;0.50;0.50;;;18.90;99.90;21.30;100713.00;;;;5072265;28;20237;-69
2023/09/19 17:49:01;;;;;;;0.30;0.30;;;18.60;99.90;21.60;100712.00;;;;5046187;28;20193;-69
2023/09/19 17:52:10;;;;;;;0.20;0.20;;;18.60;99.90;21.60;100698.00;;;;5070751;28;20536;-68
2023/09/19 17:54:51;;;;;;;0.20;0.20;;;18.50;99.90;21.90;100708.00;;;;5073128;28;20196;-68
2023/09/19 17:58:06;;;;;;;0.33;0.33;;;18.70;99.90;21.00;100699.00;;;;5076295;28;20657;-68
2023/09/19 18:01:10;;;;;;;13.47;2.73;;;18.60;99.90;21.00;100699.00;;;;5075090;28;20240;-69
2023/09/19 18:04:07;;;;;;;0.55;0.52;;;18.50;99.90;20.90;100680.00;;;;5056294;28;20245;-68
2023/09/19 18:07:05;;;;;;;0.50;0.50;;;18.40;99.90;21.30;100677.00;;;;5069834;28;20201;-69
2023/09/19 18:10:01;;;;;;;1.27;0.32;;;18.50;99.90;21.50;100675.00;;;;5066216;28;20214;-69
2023/09/19 18:13:06;;;;;;;0.20;0.20;;;18.50;99.90;21.30;100675.00;;;;5051371;28;20238;-69
2023/09/19 18:16:08;;;;;;;0.63;0.50;;;18.60;99.90;21.00;100680.00;;;;5080093;28;20201;-68
2023/09/19 18:18:55;;;;;;;0.20;0.20;;;18.50;99.90;20.90;100688.00;;;;5071755;28;20601;-68
2023/09/19 18:22:11;;;;;;;0.28;0.28;;;18.40;99.90;22.20;100701.00;;;;5075642;28;20195;-69
2023/09/19 18:25:00;;;;;;;0.30;0.30;;;18.60;99.90;21.10;100689.00;;;;5075735;28;20204;-69
2023/09/19 18:28:08;;;;;;;1.52;0.77;;;18.50;99.90;21.10;100692.00;;;;5057682;28;20199;-68
2023/09/19 18:31:38;;;;;;;0.55;0.55;;;18.50;99.90;21.90;100694.00;;;;5072302;28;20729;-68
2023/09/19 18:34:24;;;;;;;0.35;0.35;;;18.60;99.90;21.40;100693.00;;;;5078752;28;20275;-68
2023/09/19 18:37:17;;;;;;;0.32;0.32;;;18.70;99.90;21.30;100693.00;;;;5090862;28;20196;-68
2023/09/19 18:40:23;;;;;;;0.30;0.30;;;18.60;99.90;20.80;100676.00;;;;5074113;28;20188;-68
2023/09/19 18:43:42;;;;;;;0.30;0.30;;;18.50;99.90;21.20;100662.00;;;;5074836;28;20198;-68
2023/09/19 18:47:30;;;;;;;0.77;0.77;;;18.50;99.90;21.30;100683.00;;;;5066004;28;20194;-68
2023/09/19 18:54:08;;;;;;;0.20;0.20;;;18.40;99.90;21.70;100680.00;;;;5078780;28;20270;-69
2023/09/19 18:57:12;;;;;;;0.20;0.20;;;18.60;99.90;22.10;100707.00;;;;5071504;28;20248;-69
2023/09/19 19:00:28;;;;;;;0.20;0.20;;;18.80;99.90;21.10;100693.00;;;;5085424;28;20543;-68
2023/09/19 19:03:23;;;;;;;0.67;0.67;;;18.70;99.90;21.70;100699.00;;;;5062325;28;20188;-68
2023/09/19 19:06:21;;;;;;;0.17;0.17;;;18.70;99.90;21.80;100662.00;;;;5065880;28;20261;-70
2023/09/19 19:09:10;;;;;;;1.58;0.63;;;18.80;99.90;21.20;100690.00;;;;5063786;28;20238;-69
2023/09/19 19:12:16;;;;;;;0.20;0.20;;;18.70;99.90;22.20;100710.00;;;;5081890;28;20215;-69
2023/09/19 19:15:40;;;;;;;0.28;0.28;;;18.80;99.90;22.20;100700.00;;;;5085801;28;20275;-69
2023/09/19 19:18:42;;;;;;;3.60;1.77;;;18.90;99.90;21.00;100700.00;;;;5072698;28;20192;-69
2023/09/19 19:21:52;;;;;;;0.20;0.20;;;18.80;99.90;22.00;100701.00;;;;5073644;28;20321;-69
2023/09/19 19:24:57;;;;;;;0.30;0.30;;;18.70;99.90;21.00;100694.00;;;;5090475;28;20535;-69
2023/09/19 19:28:01;;;;;;;0.27;0.27;;;18.80;99.90;22.40;100705.00;;;;5086632;28;20184;-69
2023/09/19 19:31:14;;;;;;;0.97;0.70;;;19.00;99.90;22.50;100710.00;;;;5077440;28;20180;-69
2023/09/19 19:34:25;;;;;;;0.20;0.20;;;19.00;99.90;22.00;100714.00;;;;5067029;28;20217;-69